Time;durP1;ratioP1;P1;durP2;ratioP2;P2;SDS_P1;SDS_P2;PMS_P1;PMS_P2;Temp;Humidity;BMP_temperature;BMP_pressure;BME280_temperature;BME280_humidity;BME280_pressure;Samples;Min_cycle;Max_cycle;Signal;HPM_P1;HPM_P2
2023/06/22 00:00:54;;;;;;;0.38;0.38;;;18.20;99.90;;;;;;5058346;28;19920;-71
2023/06/22 00:03:22;;;;;;;0.60;0.60;;;18.30;99.90;;;;;;5068912;28;20032;-71
2023/06/22 00:05:49;;;;;;;0.40;0.40;;;18.20;99.90;;;;;;5053621;28;20033;-71
2023/06/22 00:08:15;;;;;;;0.40;0.40;;;18.10;99.90;;;;;;5064280;28;20683;-70
2023/06/22 00:10:42;;;;;;;1.40;0.98;;;18.20;99.90;;;;;;5051314;28;20063;-71
2023/06/22 00:13:09;;;;;;;0.60;0.60;;;18.10;99.90;;;;;;5069482;28;20405;-70
2023/06/22 00:15:36;;;;;;;0.53;0.53;;;18.10;99.90;;;;;;5061473;28;20044;-70
2023/06/22 00:18:02;;;;;;;0.60;0.60;;;18.00;99.90;;;;;;5059072;28;20414;-70
2023/06/22 00:20:28;;;;;;;0.70;0.38;;;18.00;99.90;;;;;;5075148;28;20071;-70
2023/06/22 00:22:55;;;;;;;0.65;0.63;;;18.00;99.90;;;;;;5064553;28;20044;-70
2023/06/22 00:25:21;;;;;;;1.20;1.05;;;17.90;99.90;;;;;;5070798;28;20489;-70
2023/06/22 00:27:47;;;;;;;1.17;1.05;;;17.90;99.90;;;;;;5067581;28;20079;-71
2023/06/22 00:30:13;;;;;;;0.40;0.40;;;17.90;99.90;;;;;;5058556;28;20045;-70
2023/06/22 00:32:39;;;;;;;2.05;1.00;;;17.70;99.90;;;;;;5056615;28;20041;-71
2023/06/22 00:35:05;;;;;;;1.58;0.65;;;17.70;99.90;;;;;;5063565;28;20379;-70
2023/06/22 00:37:31;;;;;;;0.68;0.68;;;17.70;99.90;;;;;;5066377;28;20040;-70
2023/06/22 00:39:56;;;;;;;0.40;0.40;;;17.90;99.90;;;;;;5063607;28;20056;-71
2023/06/22 00:42:22;;;;;;;0.77;0.77;;;17.60;99.90;;;;;;5059836;28;20047;-70
2023/06/22 00:44:48;;;;;;;0.88;0.88;;;17.60;99.90;;;;;;5058747;28;20045;-70
2023/06/22 00:47:17;;;;;;;0.40;0.40;;;17.80;99.90;;;;;;5055975;28;20467;-71
2023/06/22 00:49:43;;;;;;;0.20;0.20;;;17.60;99.90;;;;;;5065377;28;20511;-71
2023/06/22 00:52:13;;;;;;;0.60;0.60;;;17.70;99.90;;;;;;5072562;28;20044;-71
2023/06/22 00:54:45;;;;;;;2.20;1.20;;;17.60;99.90;;;;;;5051949;28;20140;-71
2023/06/22 00:57:12;;;;;;;0.20;0.20;;;17.60;99.90;;;;;;5065314;28;20107;-71
2023/06/22 00:59:39;;;;;;;0.68;0.68;;;17.50;99.90;;;;;;5078163;28;20083;-71
2023/06/22 01:02:05;;;;;;;0.35;0.35;;;17.40;99.90;;;;;;5063028;28;20696;-71
2023/06/22 01:04:35;;;;;;;0.40;0.40;;;17.30;99.90;;;;;;5070079;28;20044;-70
2023/06/22 01:07:07;;;;;;;0.57;0.57;;;17.50;99.90;;;;;;5058570;28;20437;-70
2023/06/22 01:09:37;;;;;;;0.75;0.60;;;17.30;99.90;;;;;;5056858;28;20045;-71
2023/06/22 01:12:07;;;;;;;0.30;0.30;;;17.40;99.90;;;;;;5066585;28;20064;-71
2023/06/22 01:14:37;;;;;;;0.30;0.30;;;17.20;99.90;;;;;;5062110;28;20505;-71
2023/06/22 01:17:06;;;;;;;0.55;0.55;;;17.20;99.90;;;;;;5060173;28;20076;-71
2023/06/22 01:19:47;;;;;;;0.22;0.22;;;17.20;99.90;;;;;;5062091;28;20032;-71
2023/06/22 01:22:16;;;;;;;0.70;0.70;;;17.30;99.90;;;;;;5069065;28;20490;-71
2023/06/22 01:25:00;;;;;;;0.40;0.40;;;17.10;99.90;;;;;;5063296;28;20049;-71
2023/06/22 01:27:53;;;;;;;1.17;1.00;;;17.00;99.90;;;;;;5052422;28;20048;-71
2023/06/22 01:30:19;;;;;;;0.95;0.88;;;17.10;99.90;;;;;;5054698;28;20041;-71
2023/06/22 01:32:45;;;;;;;0.55;0.55;;;17.10;99.90;;;;;;5065283;28;20115;-71
2023/06/22 01:35:13;;;;;;;1.27;1.10;;;17.00;99.90;;;;;;5049711;28;20074;-70
2023/06/22 01:37:38;;;;;;;0.82;0.82;;;16.90;99.90;;;;;;5073712;28;20047;-71
2023/06/22 01:40:07;;;;;;;0.28;0.28;;;16.90;99.90;;;;;;5064482;28;20439;-70
2023/06/22 01:42:34;;;;;;;1.10;0.98;;;16.90;99.90;;;;;;5062696;28;20051;-71
2023/06/22 01:45:01;;;;;;;1.10;0.60;;;16.90;99.90;;;;;;5061495;28;20469;-71
2023/06/22 01:47:28;;;;;;;0.30;0.30;;;16.80;99.90;;;;;;5079461;28;20119;-71
2023/06/22 01:49:55;;;;;;;0.55;0.55;;;16.70;99.90;;;;;;5059685;28;20048;-71
2023/06/22 01:52:21;;;;;;;0.55;0.55;;;17.00;99.90;;;;;;5060147;28;20045;-71
2023/06/22 01:54:48;;;;;;;0.80;0.80;;;16.90;99.90;;;;;;5066673;28;20051;-71
2023/06/22 01:57:13;;;;;;;0.30;0.30;;;16.70;99.90;;;;;;5068273;28;20047;-71
2023/06/22 01:59:44;;;;;;;0.40;0.40;;;16.70;99.90;;;;;;5057308;28;20049;-70
2023/06/22 02:02:13;;;;;;;0.68;0.68;;;16.70;99.90;;;;;;5061456;28;20040;-70
2023/06/22 02:04:55;;;;;;;0.55;0.55;;;16.90;99.90;;;;;;5063203;28;20048;-70
2023/06/22 02:07:23;;;;;;;0.73;0.73;;;16.70;99.90;;;;;;5064555;28;20136;-71
2023/06/22 02:09:52;;;;;;;0.32;0.32;;;16.70;99.90;;;;;;5065014;28;20490;-71
2023/06/22 02:12:22;;;;;;;1.00;0.50;;;16.70;99.90;;;;;;5061091;28;20089;-71
2023/06/22 02:14:48;;;;;;;0.57;0.40;;;16.70;99.90;;;;;;5059520;28;20041;-71
2023/06/22 02:17:14;;;;;;;0.73;0.73;;;16.40;99.90;;;;;;5060789;28;20051;-71
2023/06/22 02:19:43;;;;;;;0.38;0.38;;;16.50;99.90;;;;;;5059061;28;20080;-71
2023/06/22 02:22:08;;;;;;;1.00;1.00;;;16.60;99.90;;;;;;5056774;28;20402;-71
2023/06/22 02:24:34;;;;;;;2.58;0.50;;;16.30;99.90;;;;;;5056746;28;20041;-71
2023/06/22 02:27:01;;;;;;;0.77;0.77;;;16.30;99.90;;;;;;5057504;28;20128;-71
2023/06/22 02:29:27;;;;;;;0.47;0.40;;;16.40;99.90;;;;;;5054268;28;20505;-71
2023/06/22 02:31:54;;;;;;;0.30;0.30;;;16.30;99.90;;;;;;5056666;28;20072;-71
2023/06/22 02:34:19;;;;;;;0.82;0.82;;;16.20;99.90;;;;;;5053226;28;23343;-71
2023/06/22 02:36:50;;;;;;;0.47;0.47;;;16.40;99.90;;;;;;5057053;28;20056;-71
2023/06/22 02:39:22;;;;;;;0.30;0.30;;;16.20;99.90;;;;;;5054178;28;20073;-70
2023/06/22 02:41:52;;;;;;;0.60;0.60;;;16.20;99.90;;;;;;5049987;28;20033;-71
2023/06/22 02:44:18;;;;;;;0.40;0.40;;;16.40;99.90;;;;;;5053414;28;20095;-71
2023/06/22 02:46:44;;;;;;;0.38;0.38;;;16.20;99.90;;;;;;5065669;28;20044;-71
2023/06/22 02:49:10;;;;;;;0.52;0.52;;;16.30;99.90;;;;;;5055437;28;20494;-70
2023/06/22 02:51:39;;;;;;;0.40;0.40;;;16.00;99.90;;;;;;5054847;28;20096;-71
2023/06/22 02:54:05;;;;;;;0.70;0.70;;;16.10;99.90;;;;;;5058559;28;20056;-71
2023/06/22 02:56:31;;;;;;;0.57;0.57;;;16.10;99.90;;;;;;5056936;28;20156;-71
2023/06/22 02:59:01;;;;;;;0.60;0.60;;;16.10;99.90;;;;;;5053353;28;20577;-71
2023/06/22 03:01:37;;;;;;;0.38;0.38;;;15.90;99.90;;;;;;5047959;28;20045;-71
2023/06/22 03:04:04;;;;;;;0.50;0.50;;;15.90;99.90;;;;;;5063433;28;20044;-71
2023/06/22 03:06:30;;;;;;;0.60;0.60;;;15.90;99.90;;;;;;5058477;28;20103;-71
2023/06/22 03:09:05;;;;;;;0.52;0.52;;;15.90;99.90;;;;;;5055230;28;20747;-71
2023/06/22 03:11:34;;;;;;;0.60;0.60;;;15.90;99.90;;;;;;5054521;28;20052;-71
2023/06/22 03:14:01;;;;;;;0.30;0.30;;;15.90;99.90;;;;;;5062660;28;20055;-72
2023/06/22 03:16:27;;;;;;;0.40;0.40;;;15.80;99.90;;;;;;5066924;28;20077;-71
2023/06/22 03:18:55;;;;;;;0.50;0.50;;;15.70;99.90;;;;;;5063569;28;20079;-70
2023/06/22 03:21:23;;;;;;;0.73;0.73;;;15.80;99.90;;;;;;5057370;28;20120;-70
2023/06/22 03:23:49;;;;;;;0.43;0.43;;;15.70;99.90;;;;;;5056861;28;20131;-70
2023/06/22 03:26:17;;;;;;;1.05;0.95;;;15.60;99.90;;;;;;5052927;28;20497;-70
2023/06/22 03:28:43;;;;;;;0.68;0.68;;;15.90;99.90;;;;;;5054815;28;20048;-71
2023/06/22 03:31:08;;;;;;;0.70;0.70;;;15.60;99.90;;;;;;5058440;28;20397;-71
2023/06/22 03:33:34;;;;;;;0.90;0.35;;;15.60;99.90;;;;;;5061945;28;20139;-70
2023/06/22 03:36:00;;;;;;;0.40;0.40;;;15.50;99.90;;;;;;5064542;28;20040;-71
2023/06/22 03:38:25;;;;;;;0.30;0.30;;;15.70;99.90;;;;;;5060821;28;20406;-71
2023/06/22 03:40:51;;;;;;;0.98;0.98;;;15.40;99.90;;;;;;5056076;28;20472;-71
2023/06/22 03:43:16;;;;;;;0.90;0.90;;;15.70;99.90;;;;;;5050120;28;20123;-71
2023/06/22 03:45:45;;;;;;;0.30;0.30;;;15.50;99.90;;;;;;5057340;28;20084;-71
2023/06/22 03:48:11;;;;;;;1.10;0.93;;;15.50;99.90;;;;;;5064076;28;20051;-71
2023/06/22 03:50:36;;;;;;;1.02;0.93;;;15.70;99.90;;;;;;5057947;28;20132;-71
2023/06/22 03:53:02;;;;;;;0.50;0.50;;;15.50;99.90;;;;;;5061561;28;20124;-71
2023/06/22 03:55:28;;;;;;;0.40;0.40;;;15.60;99.90;;;;;;5065766;28;20398;-71
2023/06/22 03:57:56;;;;;;;0.45;0.45;;;15.60;99.90;;;;;;5064089;28;20076;-71
2023/06/22 04:00:23;;;;;;;0.50;0.50;;;15.50;99.90;;;;;;5055695;28;20063;-70
2023/06/22 04:02:48;;;;;;;0.43;0.43;;;15.70;99.90;;;;;;5060521;28;20049;-71
2023/06/22 04:05:14;;;;;;;0.75;0.75;;;15.50;99.90;;;;;;5058653;28;20087;-71
2023/06/22 04:07:40;;;;;;;0.43;0.43;;;15.60;99.90;;;;;;5054880;28;20049;-70
2023/06/22 04:10:06;;;;;;;0.60;0.60;;;15.50;99.90;;;;;;5057297;28;20043;-71
2023/06/22 04:12:33;;;;;;;0.30;0.30;;;15.50;99.90;;;;;;5059447;28;20094;-71
2023/06/22 04:14:59;;;;;;;0.30;0.30;;;15.50;99.90;;;;;;5056907;28;21080;-70
2023/06/22 04:17:24;;;;;;;0.30;0.30;;;15.50;99.90;;;;;;5060702;28;20049;-71
2023/06/22 04:19:51;;;;;;;0.47;0.47;;;15.50;99.90;;;;;;5060268;28;20040;-71
2023/06/22 04:22:16;;;;;;;0.40;0.40;;;15.60;99.90;;;;;;5053619;28;20041;-70
2023/06/22 04:24:42;;;;;;;0.60;0.60;;;15.70;99.90;;;;;;5052318;28;20049;-70
2023/06/22 04:27:07;;;;;;;0.57;0.57;;;15.60;99.90;;;;;;5057850;28;20033;-71
2023/06/22 04:29:33;;;;;;;0.50;0.50;;;15.80;99.90;;;;;;5055553;28;20048;-70
2023/06/22 04:32:02;;;;;;;0.30;0.30;;;15.80;99.90;;;;;;5060108;28;20045;-71
2023/06/22 04:34:29;;;;;;;0.68;0.50;;;15.80;99.90;;;;;;5058945;28;20040;-70
2023/06/22 04:36:55;;;;;;;0.40;0.40;;;15.80;99.90;;;;;;5053024;28;20143;-70
2023/06/22 04:39:21;;;;;;;0.30;0.30;;;15.80;99.90;;;;;;5054234;28;20045;-70
2023/06/22 04:41:46;;;;;;;0.40;0.40;;;15.70;99.90;;;;;;5050552;28;20048;-70
2023/06/22 04:44:26;;;;;;;0.55;0.55;;;16.00;99.90;;;;;;5041530;28;20036;-70
2023/06/22 04:47:01;;;;;;;0.40;0.40;;;16.00;99.90;;;;;;5066753;28;20066;-71
2023/06/22 04:49:32;;;;;;;0.40;0.40;;;16.20;99.90;;;;;;5063980;28;20131;-70
2023/06/22 04:52:02;;;;;;;0.50;0.50;;;16.10;99.90;;;;;;5053414;28;20049;-71
2023/06/22 04:54:28;;;;;;;0.50;0.50;;;16.30;99.90;;;;;;5059731;28;20518;-70
2023/06/22 04:56:56;;;;;;;0.50;0.50;;;16.10;99.90;;;;;;5058758;28;20164;-69
2023/06/22 04:59:27;;;;;;;2.40;0.70;;;16.10;99.90;;;;;;5052537;28;20049;-70
2023/06/22 05:02:00;;;;;;;0.60;0.60;;;16.10;99.90;;;;;;5058449;28;20040;-71
2023/06/22 05:04:35;;;;;;;0.52;0.52;;;16.30;99.90;;;;;;5056410;28;20037;-70
2023/06/22 05:07:01;;;;;;;0.30;0.30;;;16.10;99.90;;;;;;5051144;28;20095;-69
2023/06/22 05:09:27;;;;;;;0.50;0.50;;;16.40;99.90;;;;;;5056675;28;20773;-70
2023/06/22 05:11:53;;;;;;;0.40;0.40;;;16.40;99.90;;;;;;5055513;28;20463;-70
2023/06/22 05:14:19;;;;;;;0.40;0.40;;;16.40;99.90;;;;;;5061240;28;20041;-71
2023/06/22 05:16:45;;;;;;;0.63;0.63;;;16.40;99.90;;;;;;5058275;28;20069;-70
2023/06/22 05:19:12;;;;;;;0.50;0.50;;;16.60;99.90;;;;;;5063562;28;20115;-70
2023/06/22 05:21:38;;;;;;;0.85;0.70;;;16.70;99.90;;;;;;5058112;28;20049;-69
2023/06/22 05:24:04;;;;;;;0.65;0.65;;;16.60;99.90;;;;;;5051041;28;20080;-70
2023/06/22 05:26:31;;;;;;;0.63;0.63;;;16.90;99.90;;;;;;5055302;28;20041;-69
2023/06/22 05:28:57;;;;;;;2.25;0.80;;;16.70;99.90;;;;;;5054513;28;20125;-70
2023/06/22 05:31:23;;;;;;;0.68;0.68;;;17.10;99.90;;;;;;5054039;28;20127;-70
2023/06/22 05:33:51;;;;;;;0.85;0.85;;;16.90;99.90;;;;;;5051526;28;20512;-70
2023/06/22 05:36:18;;;;;;;1.40;1.00;;;17.00;99.90;;;;;;5053276;28;20040;-70
2023/06/22 05:38:44;;;;;;;1.63;1.03;;;17.30;99.90;;;;;;5059244;28;20060;-70
2023/06/22 05:41:09;;;;;;;1.45;1.35;;;17.30;99.90;;;;;;5058307;28;20392;-70
2023/06/22 05:43:35;;;;;;;0.82;0.82;;;17.40;99.90;;;;;;5061372;28;20406;-70
2023/06/22 05:46:02;;;;;;;7.40;2.05;;;17.50;99.90;;;;;;5057015;28;20037;-70
2023/06/22 05:48:27;;;;;;;2.08;1.80;;;17.60;99.90;;;;;;5059908;28;20040;-70
2023/06/22 05:50:54;;;;;;;3.13;2.92;;;18.00;99.90;;;;;;5060405;28;20397;-70
2023/06/22 05:53:19;;;;;;;6.72;3.95;;;17.90;99.90;;;;;;5055259;28;20066;-70
2023/06/22 05:55:45;;;;;;;3.05;2.67;;;18.30;99.90;;;;;;5059826;28;20045;-70
2023/06/22 05:58:11;;;;;;;4.65;3.40;;;18.20;99.90;;;;;;5058829;28;20044;-70
2023/06/22 06:00:37;;;;;;;5.18;3.80;;;18.50;99.90;;;;;;5058923;28;20049;-69
2023/06/22 06:03:03;;;;;;;2.30;2.20;;;18.50;99.90;;;;;;5054842;28;20553;-70
2023/06/22 06:05:36;;;;;;;2.88;2.67;;;18.50;99.90;;;;;;5060767;28;20049;-70
2023/06/22 06:08:04;;;;;;;1.90;1.65;;;18.70;99.90;;;;;;5057158;28;20115;-70
2023/06/22 06:10:30;;;;;;;3.30;2.95;;;18.70;99.90;;;;;;5055917;28;20079;-70
2023/06/22 06:12:56;;;;;;;2.15;2.05;;;18.80;99.90;;;;;;5055670;28;20098;-70
2023/06/22 06:15:22;;;;;;;1.85;1.75;;;19.10;99.90;;;;;;5046992;28;20037;-70
2023/06/22 06:17:52;;;;;;;1.05;1.00;;;19.20;99.90;;;;;;5049396;28;20036;-70
2023/06/22 06:20:22;;;;;;;3.15;2.53;;;19.10;99.90;;;;;;5053133;28;20042;-70
2023/06/22 06:22:49;;;;;;;0.90;0.80;;;19.20;99.90;;;;;;5055428;28;20057;-70
2023/06/22 06:25:20;;;;;;;2.63;2.42;;;19.60;99.90;;;;;;5048309;28;20037;-70
2023/06/22 06:27:46;;;;;;;3.20;3.03;;;19.60;99.90;;;;;;5051005;28;20049;-70
2023/06/22 06:30:13;;;;;;;2.17;2.00;;;19.50;99.90;;;;;;5053326;28;20083;-70
2023/06/22 06:32:39;;;;;;;1.15;1.08;;;19.80;99.90;;;;;;5059110;28;20053;-70
2023/06/22 06:35:07;;;;;;;2.35;1.83;;;19.70;99.90;;;;;;5057881;28;20441;-71
2023/06/22 06:37:37;;;;;;;1.73;1.63;;;19.90;99.90;;;;;;5049412;28;20513;-71
2023/06/22 06:40:05;;;;;;;1.58;1.48;;;20.10;99.90;;;;;;5057684;28;20054;-70
2023/06/22 06:42:31;;;;;;;1.73;1.63;;;20.30;99.90;;;;;;5059024;28;20127;-70
2023/06/22 06:44:57;;;;;;;3.03;2.80;;;20.60;99.90;;;;;;5059502;28;20560;-69
2023/06/22 06:47:23;;;;;;;1.50;1.42;;;20.60;99.90;;;;;;5044472;28;20397;-70
2023/06/22 06:49:48;;;;;;;1.83;1.73;;;20.50;99.90;;;;;;5059203;28;20048;-70
2023/06/22 06:52:14;;;;;;;2.65;1.63;;;20.80;99.90;;;;;;5064595;28;20055;-70
2023/06/22 06:54:41;;;;;;;1.90;1.80;;;20.90;99.90;;;;;;5059726;28;20037;-70
2023/06/22 06:57:10;;;;;;;2.25;1.20;;;21.00;99.90;;;;;;5053557;28;20056;-70
2023/06/22 06:59:35;;;;;;;1.67;1.63;;;21.00;99.90;;;;;;5055517;28;20103;-70
2023/06/22 07:02:01;;;;;;;2.47;2.28;;;21.30;99.90;;;;;;5059265;28;20049;-70
2023/06/22 07:04:27;;;;;;;2.08;1.70;;;21.40;99.90;;;;;;5058128;28;20087;-71
2023/06/22 07:06:52;;;;;;;1.55;1.45;;;21.50;99.90;;;;;;5062316;28;20099;-70
2023/06/22 07:09:18;;;;;;;1.67;1.58;;;21.60;99.90;;;;;;5057056;28;20066;-70
2023/06/22 07:11:44;;;;;;;2.08;1.95;;;21.80;99.90;;;;;;5057106;28;20049;-71
2023/06/22 07:14:09;;;;;;;1.65;1.55;;;21.70;99.90;;;;;;5058081;28;20119;-70
2023/06/22 07:16:35;;;;;;;2.08;1.90;;;21.80;99.90;;;;;;5057175;28;20040;-70
2023/06/22 07:19:00;;;;;;;3.65;2.15;;;22.10;99.90;;;;;;5059835;28;20044;-70
2023/06/22 07:21:26;;;;;;;3.38;1.83;;;22.10;99.90;;;;;;5058694;28;20040;-72
2023/06/22 07:23:52;;;;;;;1.98;1.88;;;22.30;99.90;;;;;;5059772;28;20448;-70
2023/06/22 07:26:17;;;;;;;2.70;2.50;;;22.20;99.90;;;;;;5060422;28;20117;-70
2023/06/22 07:28:43;;;;;;;3.55;3.25;;;22.40;99.90;;;;;;5063469;28;20040;-71
2023/06/22 07:31:09;;;;;;;3.03;2.83;;;22.20;99.90;;;;;;5056046;28;20044;-70
2023/06/22 07:33:34;;;;;;;3.72;3.42;;;22.30;99.90;;;;;;5061331;28;20490;-70
2023/06/22 07:36:00;;;;;;;6.60;3.30;;;22.30;99.90;;;;;;5063812;28;20041;-70
2023/06/22 07:38:26;;;;;;;1.83;1.73;;;22.30;99.90;;;;;;5053300;28;20049;-71
2023/06/22 07:40:53;;;;;;;4.13;2.40;;;22.60;99.90;;;;;;5059826;28;20561;-71
2023/06/22 07:43:19;;;;;;;1.30;1.30;;;22.70;99.90;;;;;;5058415;28;20556;-70
2023/06/22 07:45:54;;;;;;;2.28;2.13;;;22.60;99.90;;;;;;5056619;28;20049;-70
2023/06/22 07:48:23;;;;;;;2.95;2.75;;;22.90;99.90;;;;;;5057340;28;20502;-71
2023/06/22 07:50:48;;;;;;;3.55;2.95;;;22.90;99.90;;;;;;5061334;28;20088;-70
2023/06/22 07:53:14;;;;;;;1.85;1.75;;;22.90;99.90;;;;;;5059549;28;20550;-70
2023/06/22 07:55:40;;;;;;;2.30;1.55;;;23.10;99.90;;;;;;5061733;28;20056;-70
2023/06/22 07:58:05;;;;;;;3.47;1.73;;;23.10;99.90;;;;;;5057672;28;20040;-70
2023/06/22 08:00:33;;;;;;;9.95;3.10;;;23.30;99.90;;;;;;5052510;28;20045;-71
2023/06/22 08:02:58;;;;;;;3.92;3.22;;;23.40;99.90;;;;;;5061533;28;20052;-70
2023/06/22 08:05:24;;;;;;;4.53;3.13;;;23.50;99.90;;;;;;5057647;28;20037;-70
2023/06/22 08:07:50;;;;;;;3.17;2.55;;;23.50;99.90;;;;;;5048766;28;20694;-70
2023/06/22 08:10:16;;;;;;;1.52;1.45;;;23.40;99.90;;;;;;5058770;28;20367;-70
2023/06/22 08:12:42;;;;;;;1.45;1.35;;;23.80;99.90;;;;;;5039745;28;20072;-70
2023/06/22 08:15:09;;;;;;;4.22;3.15;;;23.80;99.90;;;;;;5063024;28;20044;-70
2023/06/22 08:17:36;;;;;;;1.33;1.27;;;24.10;99.90;;;;;;5057559;28;20233;-71
2023/06/22 08:20:05;;;;;;;1.27;1.27;;;24.50;99.90;;;;;;5060033;28;20049;-70
2023/06/22 08:22:33;;;;;;;2.58;2.03;;;24.50;99.90;;;;;;5059387;28;20163;-70
2023/06/22 08:24:58;;;;;;;1.95;1.25;;;24.50;99.90;;;;;;5060000;28;20045;-71
2023/06/22 08:27:24;;;;;;;2.53;2.33;;;24.70;99.90;;;;;;5050249;28;20045;-71
2023/06/22 08:29:50;;;;;;;1.25;1.25;;;24.70;99.90;;;;;;5059402;28;20073;-70
2023/06/22 08:32:16;;;;;;;1.85;1.75;;;24.90;99.90;;;;;;5058356;28;20738;-71
2023/06/22 08:34:42;;;;;;;2.58;1.40;;;25.00;99.90;;;;;;5065657;28;20048;-70
2023/06/22 08:37:11;;;;;;;2.15;2.05;;;24.90;99.90;;;;;;5073911;28;20079;-70
2023/06/22 08:39:37;;;;;;;1.70;1.60;;;25.00;99.90;;;;;;5060143;28;20513;-70
2023/06/22 08:42:02;;;;;;;2.63;2.20;;;25.20;99.90;;;;;;5064490;28;20089;-70
2023/06/22 08:44:28;;;;;;;3.53;2.85;;;25.20;99.90;;;;;;5072283;28;20146;-70
2023/06/22 08:46:54;;;;;;;7.63;2.40;;;25.20;99.90;;;;;;5055356;28;20045;-71
2023/06/22 08:49:19;;;;;;;1.83;1.73;;;25.30;99.90;;;;;;5056395;28;20139;-71
2023/06/22 08:51:47;;;;;;;1.92;1.77;;;25.60;99.90;;;;;;5059604;28;20130;-71
2023/06/22 08:54:13;;;;;;;1.33;1.25;;;25.70;99.90;;;;;;5063042;28;20553;-70
2023/06/22 08:56:39;;;;;;;1.30;1.20;;;25.70;99.90;;;;;;5057864;28;20128;-70
2023/06/22 08:59:07;;;;;;;0.77;0.63;;;25.90;99.90;;;;;;5056831;28;20127;-70
2023/06/22 09:01:33;;;;;;;5.22;2.65;;;26.00;99.90;;;;;;5065441;28;20094;-71
2023/06/22 09:03:59;;;;;;;1.25;1.17;;;25.90;99.90;;;;;;5057440;28;20048;-71
2023/06/22 09:06:25;;;;;;;2.27;2.03;;;25.90;99.90;;;;;;5061210;28;20072;-71
2023/06/22 09:08:51;;;;;;;1.60;1.42;;;25.90;99.90;;;;;;5059242;28;20337;-71
2023/06/22 09:11:17;;;;;;;1.05;1.05;;;26.20;99.90;;;;;;5050707;28;20570;-70
2023/06/22 09:13:42;;;;;;;2.25;2.13;;;26.10;99.90;;;;;;5062204;28;20048;-70
2023/06/22 09:16:08;;;;;;;3.45;2.80;;;26.10;99.90;;;;;;5048947;28;20141;-70
2023/06/22 09:18:34;;;;;;;1.33;1.23;;;26.20;99.90;;;;;;5055430;28;20371;-70
2023/06/22 09:21:00;;;;;;;1.10;0.82;;;26.10;99.90;;;;;;5058343;28;20056;-70
2023/06/22 09:23:26;;;;;;;2.33;1.20;;;26.30;99.90;;;;;;5054718;28;20040;-70
2023/06/22 09:25:52;;;;;;;2.22;1.98;;;26.60;99.90;;;;;;5059124;28;20059;-70
2023/06/22 09:28:17;;;;;;;1.63;1.52;;;26.60;99.90;;;;;;5052092;28;20063;-71
2023/06/22 09:30:44;;;;;;;2.22;2.13;;;26.70;99.90;;;;;;5058083;28;20036;-71
2023/06/22 09:33:10;;;;;;;1.87;1.77;;;26.70;99.90;;;;;;5055738;28;20057;-71
2023/06/22 09:35:36;;;;;;;3.10;2.17;;;26.70;99.90;;;;;;5059335;28;20275;-73
2023/06/22 09:38:01;;;;;;;4.25;2.70;;;26.50;99.90;;;;;;5059429;28;20084;-71
2023/06/22 09:40:27;;;;;;;2.75;2.55;;;26.30;99.90;;;;;;5060726;28;20045;-70
2023/06/22 09:42:52;;;;;;;7.65;3.38;;;26.10;99.90;;;;;;5053417;28;20721;-70
2023/06/22 09:45:18;;;;;;;2.38;2.28;;;26.00;99.90;;;;;;5065599;28;20066;-70
2023/06/22 09:47:44;;;;;;;2.65;2.42;;;26.00;99.90;;;;;;5058110;28;20083;-70
2023/06/22 09:50:10;;;;;;;1.80;1.65;;;26.30;99.90;;;;;;5072976;28;20047;-70
2023/06/22 09:52:35;;;;;;;2.88;2.60;;;26.40;99.90;;;;;;5049803;28;20043;-71
2023/06/22 09:55:03;;;;;;;1.77;1.67;;;26.70;99.90;;;;;;5063183;28;20036;-72
2023/06/22 09:57:29;;;;;;;1.70;1.60;;;26.80;99.90;;;;;;5058275;28;20440;-71
2023/06/22 09:59:55;;;;;;;1.20;1.20;;;26.70;99.90;;;;;;5052894;28;20057;-70
2023/06/22 10:02:22;;;;;;;2.63;2.13;;;26.70;99.90;;;;;;5067379;28;20044;-70
2023/06/22 10:04:47;;;;;;;9.38;3.10;;;26.60;99.90;;;;;;5053269;28;20055;-70
2023/06/22 10:07:13;;;;;;;2.35;2.22;;;26.50;99.90;;;;;;5062742;28;20045;-71
2023/06/22 10:09:39;;;;;;;1.58;1.30;;;26.50;99.90;;;;;;5051675;28;20486;-71
2023/06/22 10:12:05;;;;;;;2.05;1.95;;;26.60;99.90;;;;;;5055927;28;20048;-71
2023/06/22 10:14:31;;;;;;;4.20;3.90;;;26.80;99.90;;;;;;5059037;28;20405;-70
2023/06/22 10:16:56;;;;;;;3.22;2.90;;;26.70;99.90;;;;;;5032719;28;20433;-70
2023/06/22 10:19:22;;;;;;;2.83;2.63;;;26.50;99.90;;;;;;5050558;28;20078;-70
2023/06/22 10:21:47;;;;;;;2.17;2.08;;;26.50;99.90;;;;;;5063136;28;20073;-70
2023/06/22 10:24:13;;;;;;;2.63;2.42;;;26.30;99.90;;;;;;5054944;28;20056;-71
2023/06/22 10:26:39;;;;;;;2.97;2.72;;;26.30;99.90;;;;;;5047508;28;20086;-70
2023/06/22 10:29:04;;;;;;;1.98;1.65;;;26.60;99.90;;;;;;5056583;28;20472;-70
2023/06/22 10:31:30;;;;;;;4.55;4.18;;;26.90;99.90;;;;;;5055018;28;20143;-70
2023/06/22 10:33:56;;;;;;;2.08;1.98;;;27.10;99.90;;;;;;5058674;28;20049;-70
2023/06/22 10:36:22;;;;;;;1.98;1.17;;;27.00;99.90;;;;;;5055760;28;20482;-70
2023/06/22 10:38:48;;;;;;;1.63;1.52;;;27.20;99.90;;;;;;5057877;28;20048;-70
2023/06/22 10:41:14;;;;;;;0.80;0.80;;;27.10;99.90;;;;;;5057514;28;20425;-70
2023/06/22 10:43:39;;;;;;;1.42;1.08;;;27.30;99.90;;;;;;5050333;28;20055;-70
2023/06/22 10:46:06;;;;;;;3.15;2.90;;;27.40;99.90;;;;;;5053210;28;20048;-70
2023/06/22 10:48:32;;;;;;;1.77;1.67;;;27.60;99.90;;;;;;5050944;28;20125;-70
2023/06/22 10:50:58;;;;;;;2.15;2.05;;;27.60;99.90;;;;;;5055928;28;20048;-71
2023/06/22 10:53:24;;;;;;;2.22;1.83;;;27.70;99.90;;;;;;5060561;28;20044;-70
2023/06/22 10:55:49;;;;;;;3.03;2.75;;;27.70;99.90;;;;;;5059684;28;20053;-70
2023/06/22 10:58:15;;;;;;;8.20;3.20;;;27.70;99.90;;;;;;5053024;28;20106;-71
2023/06/22 11:00:41;;;;;;;1.92;1.83;;;27.80;99.90;;;;;;5053110;28;20045;-70
2023/06/22 11:03:06;;;;;;;3.50;1.45;;;27.80;99.90;;;;;;5048562;28;20073;-70
2023/06/22 11:05:32;;;;;;;2.97;2.80;;;28.00;99.90;;;;;;5052639;28;20079;-71
2023/06/22 11:07:58;;;;;;;3.08;2.33;;;27.70;99.90;;;;;;5054632;28;20061;-70
2023/06/22 11:10:23;;;;;;;1.90;1.80;;;27.40;99.90;;;;;;5053117;28;20052;-71
2023/06/22 11:12:49;;;;;;;1.88;1.77;;;27.60;99.90;;;;;;5044119;28;20115;-71
2023/06/22 11:15:15;;;;;;;1.60;1.50;;;27.50;99.90;;;;;;5053139;28;20059;-70
2023/06/22 11:17:40;;;;;;;1.88;1.77;;;27.60;99.90;;;;;;5054676;28;20049;-70
2023/06/22 11:20:10;;;;;;;1.38;1.30;;;27.50;99.90;;;;;;5052860;28;20068;-71
2023/06/22 11:22:39;;;;;;;3.00;2.55;;;27.70;99.90;;;;;;5056011;28;20084;-70
2023/06/22 11:25:05;;;;;;;1.48;1.33;;;27.70;99.90;;;;;;5060973;28;20094;-71
2023/06/22 11:27:31;;;;;;;1.75;1.65;;;27.60;99.90;;;;;;5052222;28;20032;-70
2023/06/22 11:29:56;;;;;;;1.90;1.80;;;27.90;99.90;;;;;;5063667;28;20103;-71
2023/06/22 11:32:22;;;;;;;2.55;2.45;;;27.60;99.90;;;;;;5054054;28;20082;-71
2023/06/22 11:34:48;;;;;;;1.60;1.50;;;27.50;99.90;;;;;;5050743;28;20476;-70
2023/06/22 11:37:15;;;;;;;2.35;2.15;;;27.40;99.90;;;;;;5071215;28;20055;-70
2023/06/22 11:39:41;;;;;;;2.72;2.17;;;27.20;99.90;;;;;;5058798;28;20068;-70
2023/06/22 11:42:07;;;;;;;2.80;2.60;;;27.30;99.90;;;;;;5058162;28;20340;-70
2023/06/22 11:44:32;;;;;;;3.63;2.13;;;27.30;99.90;;;;;;5064691;28;20105;-70
2023/06/22 11:47:00;;;;;;;6.53;3.42;;;27.30;99.90;;;;;;5082729;28;20083;-70
2023/06/22 11:49:29;;;;;;;2.17;2.08;;;27.10;99.90;;;;;;5064983;28;20045;-70
2023/06/22 11:51:55;;;;;;;3.72;1.65;;;27.00;99.90;;;;;;5055164;28;20044;-70
2023/06/22 11:54:20;;;;;;;2.85;2.65;;;26.90;99.90;;;;;;5068011;28;20094;-70
2023/06/22 11:56:46;;;;;;;2.10;1.95;;;26.80;99.90;;;;;;5059704;28;20045;-70
2023/06/22 11:59:12;;;;;;;3.22;2.88;;;26.70;99.90;;;;;;5056934;28;20053;-70
2023/06/22 12:01:37;;;;;;;2.17;2.08;;;26.60;99.90;;;;;;5056729;28;20124;-70
2023/06/22 12:04:05;;;;;;;4.28;2.17;;;26.50;99.90;;;;;;5038716;28;20041;-70
2023/06/22 12:06:32;;;;;;;2.90;2.67;;;26.40;99.90;;;;;;5043789;28;20508;-71
2023/06/22 12:08:58;;;;;;;1.95;1.77;;;26.40;99.90;;;;;;5059356;28;20052;-71
2023/06/22 12:11:23;;;;;;;1.95;1.85;;;26.50;99.90;;;;;;5065346;28;20098;-70
2023/06/22 12:13:50;;;;;;;5.13;2.10;;;26.60;99.90;;;;;;5069298;28;20405;-70
2023/06/22 12:16:16;;;;;;;3.10;2.80;;;26.30;99.90;;;;;;5055357;28;20057;-70
2023/06/22 12:18:41;;;;;;;0.98;0.93;;;26.30;99.90;;;;;;5058397;28;20072;-70
2023/06/22 12:21:07;;;;;;;2.03;1.88;;;26.50;99.90;;;;;;5044661;28;20166;-70
2023/06/22 12:23:33;;;;;;;0.93;0.93;;;26.40;99.90;;;;;;5055911;28;20040;-70
2023/06/22 12:25:59;;;;;;;1.83;1.73;;;26.50;99.90;;;;;;5047881;28;20068;-70
2023/06/22 12:28:25;;;;;;;2.17;2.07;;;26.50;99.90;;;;;;5054988;28;20052;-70
2023/06/22 12:30:51;;;;;;;1.85;1.75;;;26.50;99.90;;;;;;5057402;28;20131;-70
2023/06/22 12:33:16;;;;;;;1.73;1.63;;;26.50;99.90;;;;;;5072178;28;20122;-70
2023/06/22 12:35:45;;;;;;;1.67;1.55;;;26.50;99.90;;;;;;5056468;28;20063;-71
2023/06/22 12:38:11;;;;;;;3.05;1.52;;;26.50;99.90;;;;;;5068630;28;20063;-70
2023/06/22 12:40:36;;;;;;;2.22;1.85;;;26.50;99.90;;;;;;5049843;28;20037;-70
2023/06/22 12:43:02;;;;;;;1.58;1.48;;;26.40;99.90;;;;;;5052408;28;20041;-70
2023/06/22 12:45:31;;;;;;;1.80;1.70;;;26.40;99.90;;;;;;5059360;28;20080;-70